Time;durP1;ratioP1;P1;durP2;ratioP2;P2;SDS_P1;SDS_P2;PMS_P1;PMS_P2;Temp;Humidity;BMP_temperature;BMP_pressure;BME280_temperature;BME280_humidity;BME280_pressure;Samples;Min_cycle;Max_cycle;Signal;HPM_P1;HPM_P2
2022/05/05 00:00:17;;;;;;;22.93;6.28;;;;;;;10.72;57.41;99185.89;2000753;89;21533;-62
2022/05/05 00:03:20;;;;;;;;;;;;;;;10.75;57.60;99180.95;1984576;89;21064;-62
2022/05/05 00:06:20;;;;;;;18.70;5.90;;;;;;;10.75;57.78;99181.78;2000978;89;20122;-62
2022/05/05 00:09:21;;;;;;;21.80;6.17;;;;;;;10.74;57.49;99183.19;2000739;89;21065;-62
2022/05/05 00:15:24;;;;;;;19.20;5.70;;;;;;;10.75;58.61;99178.33;1982272;89;21056;-62
2022/05/05 00:18:24;;;;;;;21.02;6.03;;;;;;;10.77;57.82;99177.76;2000855;89;21010;-62
2022/05/05 00:21:25;;;;;;;20.88;5.72;;;;;;;10.81;57.41;99177.14;2000753;89;20989;-62
2022/05/05 00:24:25;;;;;;;19.57;5.75;;;;;;;10.84;57.47;99173.02;2000723;88;21642;-62
2022/05/05 00:27:28;;;;;;;19.60;5.50;;;;;;;10.85;57.69;99171.63;2001004;89;21052;-62
2022/05/05 00:30:29;;;;;;;20.95;5.30;;;;;;;10.85;57.63;99171.63;1982195;89;21084;-62
2022/05/05 00:33:30;;;;;;;16.42;5.53;;;;;;;10.88;57.59;99173.23;2000855;89;21021;-62
2022/05/05 00:36:31;;;;;;;20.37;5.50;;;;;;;10.85;57.89;99165.54;2001051;89;21037;-62
2022/05/05 00:39:31;;;;;;;19.00;5.72;;;;;;;10.84;57.65;99161.21;2000677;89;21548;-62
2022/05/05 00:42:32;;;;;;;19.95;6.10;;;;;;;10.86;57.82;99164.58;2000658;89;20982;-62
2022/05/05 00:45:33;;;;;;;18.77;5.70;;;;;;;10.86;57.67;99169.38;2001110;89;21512;-62
2022/05/05 00:48:34;;;;;;;18.15;4.97;;;;;;;10.85;57.89;99166.85;2000584;87;21163;-62
2022/05/05 00:51:34;;;;;;;19.73;5.53;;;;;;;10.83;59.01;99164.76;2000936;89;21021;-62
2022/05/05 00:54:35;;;;;;;19.82;5.53;;;;;;;10.83;58.00;99170.01;2000392;89;21168;-62
2022/05/05 00:57:37;;;;;;;19.75;5.33;;;;;;;10.84;58.39;99167.77;2000763;89;21109;-62
2022/05/05 01:00:37;;;;;;;19.95;5.67;;;;;;;10.84;57.99;99169.92;2000996;89;21568;-62
2022/05/05 01:03:38;;;;;;;16.95;5.03;;;;;;;10.83;58.50;99167.38;2000944;87;20989;-62
2022/05/05 01:06:38;;;;;;;20.12;5.53;;;;;;;10.85;57.89;99169.00;2000932;89;21118;-62
2022/05/05 01:09:39;;;;;;;18.67;5.20;;;;;;;10.88;57.87;99170.13;2000694;89;21021;-62
2022/05/05 01:12:39;;;;;;;19.27;5.33;;;;;;;10.88;58.26;99160.95;2000797;89;21573;-62
2022/05/05 01:15:41;;;;;;;20.80;5.80;;;;;;;10.86;57.92;99160.65;2000808;89;21500;-62
2022/05/05 01:18:42;;;;;;;18.17;5.33;;;;;;;10.85;58.12;99161.60;2000765;89;21124;-62
2022/05/05 01:21:43;;;;;;;19.00;5.50;;;;;;;10.84;57.79;99163.36;2000748;89;21052;-62
2022/05/05 01:30:49;;;;;;;21.40;5.53;;;;;;;10.79;57.93;99161.92;1978099;89;21031;-62
2022/05/05 01:33:49;;;;;;;17.73;5.20;;;;;;;10.75;57.98;99160.80;1999600;88;21497;-62
2022/05/05 01:36:50;;;;;;;18.45;5.40;;;;;;;10.70;58.02;99162.84;2001139;89;21025;-62
2022/05/05 01:39:50;;;;;;;16.77;5.25;;;;;;;10.68;58.03;99162.55;2001247;89;21104;-62
2022/05/05 01:42:51;;;;;;;19.20;5.60;;;;;;;10.75;57.82;99166.05;1997521;89;21012;-62
2022/05/05 01:45:51;;;;;;;19.07;5.60;;;;;;;10.73;57.86;99169.23;2003110;88;21068;-62
2022/05/05 01:48:52;;;;;;;18.70;5.85;;;;;;;10.64;58.08;99167.58;1997176;89;21022;-62
2022/05/05 01:51:52;;;;;;;19.30;5.90;;;;;;;10.58;58.29;99163.52;2000746;87;21556;-62
2022/05/05 01:54:52;;;;;;;20.48;5.50;;;;;;;10.55;58.39;99164.53;2003303;87;21017;-62
2022/05/05 01:57:53;;;;;;;18.23;5.75;;;;;;;10.54;58.49;99160.69;2001468;89;21060;-62
2022/05/05 02:00:55;;;;;;;18.23;5.25;;;;;;;10.53;58.56;99163.78;1997518;88;21072;-62
2022/05/05 02:03:56;;;;;;;18.87;5.78;;;;;;;10.51;58.21;99166.10;1995857;89;21146;-62
2022/05/05 02:06:56;;;;;;;19.02;5.45;;;;;;;10.48;58.40;99168.42;2003298;89;21507;-62
2022/05/05 02:09:57;;;;;;;19.80;5.90;;;;;;;10.46;58.25;99170.30;1997706;89;21001;-62
2022/05/05 02:12:58;;;;;;;19.17;5.35;;;;;;;10.43;58.42;99164.36;2005245;89;21127;-62
2022/05/05 02:15:59;;;;;;;20.20;5.70;;;;;;;10.36;59.15;99159.46;2001147;89;21068;-62
2022/05/05 02:18:59;;;;;;;18.92;5.60;;;;;;;10.34;58.95;99153.91;1997531;88;21508;-62
2022/05/05 02:21:59;;;;;;;18.42;5.25;;;;;;;10.33;58.60;99154.36;2005082;89;21029;-62
2022/05/05 02:25:00;;;;;;;20.17;5.80;;;;;;;10.28;59.05;99155.54;1997539;89;21049;-62
2022/05/05 02:28:00;;;;;;;21.40;5.17;;;;;;;10.25;59.09;99155.23;2001446;89;21010;-62
2022/05/05 02:31:01;;;;;;;18.42;4.95;;;;;;;10.30;59.06;99157.59;2001084;89;21104;-62
2022/05/05 02:34:08;;;;;;;18.32;5.08;;;;;;;10.36;59.19;99155.53;1998402;88;21057;-62
2022/05/05 02:40:06;;;;;;;15.70;5.25;;;;;;;10.41;58.78;99155.27;1982271;89;21077;-62
2022/05/05 02:43:07;;;;;;;19.17;5.75;;;;;;;10.23;59.45;99163.19;2005165;89;21057;-62
2022/05/05 02:46:07;;;;;;;20.77;5.42;;;;;;;10.20;59.52;99162.48;1997358;87;21005;-62
2022/05/05 02:49:08;;;;;;;18.00;5.22;;;;;;;10.18;59.59;99160.43;2001302;89;21528;-62
2022/05/05 02:52:08;;;;;;;19.30;5.70;;;;;;;10.23;59.82;99166.28;1997864;89;21021;-62
2022/05/05 02:55:08;;;;;;;17.92;5.60;;;;;;;10.11;60.15;99162.52;2005279;89;21004;-62
2022/05/05 02:58:09;;;;;;;19.10;5.45;;;;;;;10.08;59.67;99163.17;1997519;89;21531;-62
2022/05/05 03:01:10;;;;;;;20.37;5.40;;;;;;;10.15;59.67;99171.92;2005211;89;21068;-62
2022/05/05 03:04:10;;;;;;;20.77;5.78;;;;;;;10.11;59.69;99170.38;1997824;89;21073;-62
2022/05/05 03:07:11;;;;;;;19.87;5.75;;;;;;;10.09;59.88;99172.73;2001023;87;21021;-62
2022/05/05 03:10:12;;;;;;;19.50;5.45;;;;;;;10.04;60.01;99173.81;2004896;88;21101;-62
2022/05/05 03:13:12;;;;;;;22.87;5.62;;;;;;;10.02;60.19;99166.96;1997727;89;21049;-62
2022/05/05 03:16:13;;;;;;;19.82;5.92;;;;;;;10.01;60.38;99174.43;2001343;87;21528;-62
2022/05/05 03:19:13;;;;;;;20.50;5.55;;;;;;;10.01;60.26;99170.06;1997894;89;21333;-62
2022/05/05 03:22:14;;;;;;;16.50;5.03;;;;;;;10.00;60.64;99174.91;1995709;89;21048;-62
2022/05/05 03:25:14;;;;;;;17.40;4.97;;;;;;;10.01;60.48;99173.13;1993768;89;21049;-62
2022/05/05 03:28:15;;;;;;;19.98;5.25;;;;;;;10.06;60.58;99172.42;1994812;89;21010;-62
2022/05/05 03:31:15;;;;;;;19.92;5.40;;;;;;;10.10;60.82;99171.78;1995998;89;21545;-62
2022/05/05 03:34:16;;;;;;;19.87;5.87;;;;;;;10.16;60.48;99176.72;1995985;89;21069;-62
2022/05/05 03:37:16;;;;;;;19.32;5.78;;;;;;;10.22;60.63;99171.13;1995891;89;21104;-62
2022/05/05 03:40:17;;;;;;;19.05;5.35;;;;;;;10.28;60.43;99176.03;1996205;89;21013;-62
2022/05/05 03:43:18;;;;;;;17.82;5.55;;;;;;;10.31;60.57;99172.41;1995985;89;21084;-62
2022/05/05 03:46:19;;;;;;;19.87;5.92;;;;;;;10.31;60.59;99173.24;1996141;89;21551;-62
2022/05/05 03:49:20;;;;;;;19.00;6.35;;;;;;;10.32;60.50;99176.25;1998655;89;21062;-62
2022/05/05 03:52:20;;;;;;;20.35;5.72;;;;;;;10.36;60.58;99178.30;1998711;89;21057;-62
2022/05/05 03:55:21;;;;;;;20.00;5.62;;;;;;;10.43;60.74;99174.41;1998849;87;21038;-62
2022/05/05 03:58:21;;;;;;;19.23;5.97;;;;;;;10.49;60.71;99174.53;1998504;89;21088;-62
2022/05/05 04:01:21;;;;;;;19.27;5.40;;;;;;;10.55;60.49;99174.19;1998616;89;21085;-62
2022/05/05 04:04:22;;;;;;;23.22;6.30;;;;;;;10.64;60.16;99185.95;1998453;89;21628;-62
2022/05/05 04:07:23;;;;;;;22.95;5.85;;;;;;;10.75;59.95;99190.97;1998783;89;21076;-62
2022/05/05 04:10:23;;;;;;;20.82;5.78;;;;;;;10.86;59.79;99188.20;1998837;89;21033;-62
2022/05/05 04:13:25;;;;;;;19.75;5.67;;;;;;;10.94;59.85;99191.72;1998757;89;21081;-62
2022/05/05 04:16:26;;;;;;;;;;;;;;;11.03;59.60;99192.05;2001009;89;21125;-62
2022/05/05 04:19:26;;;;;;;21.23;5.45;;;;;;;11.15;59.55;99193.57;1998500;89;20454;-62
2022/05/05 04:22:27;;;;;;;18.57;5.45;;;;;;;11.30;59.41;99194.00;1998809;89;21080;-62
2022/05/05 04:25:27;;;;;;;18.95;5.70;;;;;;;11.42;59.08;99187.18;1997934;88;21045;-62
2022/05/05 04:28:28;;;;;;;20.08;5.83;;;;;;;11.57;58.89;99197.27;2003959;88;21080;-62
2022/05/05 04:31:29;;;;;;;21.97;6.00;;;;;;;11.73;58.69;99191.47;2003573;89;21092;-62
2022/05/05 04:34:31;;;;;;;18.85;5.62;;;;;;;11.90;58.25;99195.71;2004019;89;21581;-62
2022/05/05 04:37:32;;;;;;;17.73;5.33;;;;;;;12.08;58.03;99195.55;1995941;88;21040;-62
2022/05/05 04:40:32;;;;;;;19.95;5.40;;;;;;;12.26;57.83;99202.31;1995769;89;21115;-62
2022/05/05 04:43:33;;;;;;;17.75;5.45;;;;;;;12.41;57.53;99206.24;2000839;89;21525;-62
2022/05/05 04:46:34;;;;;;;20.72;5.70;;;;;;;12.60;57.28;99208.58;2001331;89;21056;-62
2022/05/05 04:49:34;;;;;;;20.43;5.58;;;;;;;12.75;56.97;99210.70;2000941;89;21025;-62
2022/05/05 04:52:35;;;;;;;19.52;5.50;;;;;;;12.93;56.72;99216.10;2000828;87;21057;-62
2022/05/05 04:55:35;;;;;;;18.00;5.60;;;;;;;13.03;56.45;99212.86;2000739;89;21080;-62
2022/05/05 04:58:36;;;;;;;17.40;5.28;;;;;;;13.11;55.99;99218.48;2000560;89;21576;-62
2022/05/05 05:01:36;;;;;;;17.77;5.25;;;;;;;13.26;55.82;99218.80;2000820;89;21069;-62
2022/05/05 05:04:37;;;;;;;20.30;5.47;;;;;;;13.38;54.81;99211.06;2001070;89;21082;-62
2022/05/05 05:07:37;;;;;;;16.25;5.22;;;;;;;13.61;55.28;99209.52;2000823;88;21025;-62
2022/05/05 05:10:38;;;;;;;22.17;5.60;;;;;;;13.76;55.00;99212.41;2000996;89;21021;-62
2022/05/05 05:13:38;;;;;;;17.37;5.40;;;;;;;13.95;54.11;99208.06;2000717;89;21014;-62
2022/05/05 05:16:38;;;;;;;16.23;5.08;;;;;;;14.13;54.36;99208.57;2000819;89;21564;-62
2022/05/05 05:19:39;;;;;;;17.27;5.22;;;;;;;14.27;54.19;99206.78;2000864;89;21085;-62
2022/05/05 05:22:39;;;;;;;19.98;5.33;;;;;;;14.46;53.88;99211.59;2001071;89;20989;-62
2022/05/05 05:25:40;;;;;;;21.00;6.22;;;;;;;14.68;53.62;99214.88;2002390;87;21045;-62
2022/05/05 05:28:40;;;;;;;20.08;5.55;;;;;;;14.83;52.92;99215.11;1998457;89;21109;-62
2022/05/05 05:31:41;;;;;;;18.42;5.67;;;;;;;15.00;52.96;99212.56;1997626;89;21067;-62
2022/05/05 05:34:42;;;;;;;18.45;5.30;;;;;;;15.15;52.25;99211.91;2000746;89;21523;-62
2022/05/05 05:37:43;;;;;;;21.25;5.58;;;;;;;15.18;52.19;99211.67;2001057;89;21584;-61
2022/05/05 05:40:43;;;;;;;20.82;5.75;;;;;;;15.29;51.86;99216.66;2000760;89;21065;-62
2022/05/05 05:43:44;;;;;;;18.67;5.90;;;;;;;15.47;51.92;99207.82;1998756;89;21056;-62
2022/05/05 05:46:44;;;;;;;17.85;5.75;;;;;;;15.70;51.66;99214.87;2000731;88;21085;-62
2022/05/05 05:49:45;;;;;;;18.20;5.37;;;;;;;15.87;50.86;99212.27;2000690;89;21544;-63
2022/05/05 05:52:45;;;;;;;18.82;6.00;;;;;;;16.02;50.75;99215.55;2002740;89;21519;-62
2022/05/05 05:55:46;;;;;;;17.70;5.30;;;;;;;16.19;50.52;99210.27;2001040;89;21109;-62
2022/05/05 05:58:47;;;;;;;19.95;6.08;;;;;;;16.36;50.29;99222.64;1995376;89;21366;-62
2022/05/05 06:04:50;;;;;;;;;;;;;;;16.71;49.69;99224.31;1985561;89;21088;-62
2022/05/05 06:07:51;;;;;;;18.90;5.47;;;;;;;16.89;50.25;99221.52;1998571;88;20266;-62
2022/05/05 06:10:51;;;;;;;16.77;5.65;;;;;;;17.08;49.33;99223.53;2002542;89;21089;-62
2022/05/05 06:13:52;;;;;;;20.77;5.62;;;;;;;17.30;48.25;99223.09;1998121;89;21049;-62
2022/05/05 06:16:53;;;;;;;19.35;5.58;;;;;;;17.47;49.38;99225.67;2002718;89;21639;-62
2022/05/05 06:19:53;;;;;;;17.95;5.75;;;;;;;17.78;48.90;99228.38;1998137;87;21061;-62
2022/05/05 06:22:54;;;;;;;18.27;5.72;;;;;;;18.08;48.61;99228.10;2002878;89;21057;-61
2022/05/05 06:25:55;;;;;;;19.57;5.62;;;;;;;18.19;48.20;99220.06;1996404;89;21077;-62
2022/05/05 06:28:55;;;;;;;16.82;5.75;;;;;;;18.22;48.04;99226.92;1992556;88;20998;-62
2022/05/05 06:31:56;;;;;;;19.82;5.83;;;;;;;18.29;47.54;99224.92;1995831;89;21064;-62
2022/05/05 06:34:56;;;;;;;18.27;5.58;;;;;;;18.39;47.55;99228.95;1995988;89;21045;-62
2022/05/05 06:37:56;;;;;;;21.33;6.42;;;;;;;18.46;46.42;99223.45;1995946;89;21596;-62
2022/05/05 06:40:57;;;;;;;17.27;5.47;;;;;;;18.50;47.07;99222.68;1995812;89;21085;-62
2022/05/05 06:43:57;;;;;;;15.63;5.42;;;;;;;18.75;46.66;99224.49;1995913;87;21064;-62
2022/05/05 06:46:59;;;;;;;18.87;5.78;;;;;;;18.81;46.09;99216.83;1996295;87;21553;-62
2022/05/05 06:50:00;;;;;;;20.85;5.85;;;;;;;19.03;46.69;99222.91;1998487;89;21028;-62
2022/05/05 06:53:02;;;;;;;18.25;5.50;;;;;;;19.21;46.65;99229.72;1998748;89;20990;-62
2022/05/05 06:56:03;;;;;;;22.62;6.30;;;;;;;19.48;45.95;99233.48;1976266;89;21062;-62
2022/05/05 06:59:03;;;;;;;17.30;5.65;;;;;;;19.64;45.93;99232.44;1998611;89;21064;-62
2022/05/05 07:02:04;;;;;;;17.32;5.50;;;;;;;19.95;45.84;99228.77;1998072;89;21080;-62
2022/05/05 07:08:07;;;;;;;16.50;5.58;;;;;;;20.41;44.90;99227.06;1976177;89;21033;-62
2022/05/05 07:11:07;;;;;;;17.40;5.80;;;;;;;20.52;43.30;99232.70;1998631;87;21628;-62
2022/05/05 07:14:08;;;;;;;18.35;5.85;;;;;;;20.67;44.41;99234.41;1998479;89;21572;-62
2022/05/05 07:17:08;;;;;;;17.62;5.75;;;;;;;20.87;44.62;99231.13;1998734;89;21034;-62
2022/05/05 07:20:08;;;;;;;18.87;5.87;;;;;;;21.03;43.96;99235.80;1998539;87;21135;-62
2022/05/05 07:23:12;;;;;;;16.90;5.72;;;;;;;21.18;43.11;99241.47;1998621;89;21025;-62
2022/05/05 07:26:14;;;;;;;17.07;5.53;;;;;;;21.20;42.87;99237.63;1976440;88;21589;-62
2022/05/05 07:29:15;;;;;;;20.12;5.62;;;;;;;21.34;43.00;99234.94;1976314;89;21583;-62
2022/05/05 07:32:16;;;;;;;;;;;;;;;21.50;42.04;99235.58;2000908;89;21037;-62
2022/05/05 07:35:17;;;;;;;17.60;5.92;;;;;;;21.56;41.42;99238.16;1998591;88;20159;-62
2022/05/05 07:38:17;;;;;;;17.73;5.80;;;;;;;21.75;42.13;99243.80;1998910;89;21575;-63
2022/05/05 07:41:18;;;;;;;19.90;5.85;;;;;;;21.94;41.80;99231.60;1998925;89;21107;-62
2022/05/05 07:44:18;;;;;;;18.32;6.28;;;;;;;22.07;41.69;99229.84;1998989;89;20974;-62
2022/05/05 07:47:19;;;;;;;18.77;6.05;;;;;;;22.17;41.16;99224.41;1998867;89;21049;-62
2022/05/05 07:50:19;;;;;;;18.00;5.87;;;;;;;22.36;41.79;99228.70;1998865;88;21069;-62
2022/05/05 07:53:19;;;;;;;18.37;5.40;;;;;;;22.59;41.90;99222.27;1998768;89;21501;-62
2022/05/05 07:56:20;;;;;;;15.67;5.37;;;;;;;22.83;40.82;99216.69;1998758;87;21564;-62
2022/05/05 07:59:20;;;;;;;19.40;6.10;;;;;;;22.92;40.77;99215.69;1998974;89;21045;-62
2022/05/05 08:02:21;;;;;;;16.53;5.40;;;;;;;23.00;39.99;99211.70;1998564;89;21121;-62
2022/05/05 08:05:22;;;;;;;19.40;5.97;;;;;;;23.17;39.10;99211.27;1998901;89;21140;-62
2022/05/05 08:08:22;;;;;;;18.90;5.80;;;;;;;23.15;39.89;99215.93;1998760;89;21013;-62
2022/05/05 08:11:23;;;;;;;20.23;5.93;;;;;;;23.26;39.83;99212.11;1998839;89;21910;-62
2022/05/05 08:14:23;;;;;;;20.20;5.67;;;;;;;23.32;39.35;99215.45;1998878;89;21570;-62
2022/05/05 08:17:23;;;;;;;16.43;5.87;;;;;;;23.46;39.85;99217.97;1998840;88;21096;-62
2022/05/05 08:20:24;;;;;;;19.03;5.67;;;;;;;23.71;39.00;99207.25;1998774;89;21057;-62
2022/05/05 08:23:24;;;;;;;18.03;6.07;;;;;;;23.72;38.85;99216.96;1998977;89;21128;-62
2022/05/05 08:29:27;;;;;;;17.62;5.97;;;;;;;24.09;38.71;99206.70;2019306;88;21018;-62
2022/05/05 08:32:28;;;;;;;18.53;6.03;;;;;;;24.17;38.29;99208.84;2018557;88;21002;-62
2022/05/05 08:35:28;;;;;;;18.53;6.27;;;;;;;24.30;38.72;99207.48;2018280;88;21089;-62
2022/05/05 08:38:29;;;;;;;19.83;5.90;;;;;;;24.34;38.48;99212.83;2018521;87;21560;-62
2022/05/05 08:41:30;;;;;;;21.30;6.20;;;;;;;24.47;37.82;99201.55;2018422;88;21056;-62
2022/05/05 08:44:30;;;;;;;19.03;6.30;;;;;;;24.37;36.94;99206.60;2018675;87;21017;-61
2022/05/05 08:47:31;;;;;;;20.03;6.50;;;;;;;24.46;37.21;99206.06;2018609;87;21129;-60
2022/05/05 08:50:32;;;;;;;21.37;6.30;;;;;;;24.41;37.99;99207.11;2018431;87;21006;-61
2022/05/05 08:53:35;;;;;;;21.15;6.05;;;;;;;24.67;37.83;99208.70;2018534;87;21161;-60
2022/05/05 08:56:35;;;;;;;20.20;5.97;;;;;;;24.72;37.75;99205.83;2025651;87;20989;-60
2022/05/05 08:59:36;;;;;;;22.70;5.80;;;;;;;24.81;37.40;99218.69;2018452;88;21579;-60
2022/05/05 09:02:38;;;;;;;17.00;6.40;;;;;;;24.78;36.40;99211.48;2018489;87;21591;-60
2022/05/05 09:05:39;;;;;;;;;;;;;;;24.76;37.28;99217.02;2020767;87;21058;-60
2022/05/05 09:08:39;;;;;;;17.00;6.30;;;;;;;24.83;37.17;99205.09;2018340;87;20134;-60
2022/05/05 09:11:39;;;;;;;18.97;6.07;;;;;;;24.84;36.58;99208.94;2018480;87;21496;-60
2022/05/05 09:14:41;;;;;;;16.53;6.00;;;;;;;25.07;36.49;99208.95;2018541;88;21608;-60
2022/05/05 09:17:42;;;;;;;17.45;6.15;;;;;;;25.27;35.52;99208.98;2018404;87;21028;-60
2022/05/05 09:20:42;;;;;;;18.03;6.10;;;;;;;25.30;36.22;99211.30;2018497;88;21555;-60
2022/05/05 09:24:43;;;;;;;19.20;5.93;;;;;;;25.49;36.00;99217.56;2018497;88;21057;-60
2022/05/05 09:26:45;;;;;;;20.48;5.92;;;;;;;25.53;36.33;99216.20;2019683;86;21133;-60
2022/05/05 09:29:46;;;;;;;16.03;5.43;;;;;;;25.64;35.85;99218.94;2018122;88;21026;-60
2022/05/05 09:32:47;;;;;;;19.50;6.37;;;;;;;25.72;36.03;99222.08;2018500;88;21006;-60
2022/05/05 09:35:48;;;;;;;16.70;5.78;;;;;;;25.88;35.47;99223.25;2018252;88;21508;-60
2022/05/05 09:38:50;;;;;;;17.60;6.10;;;;;;;25.96;35.47;99223.70;2018633;88;21053;-60
2022/05/05 09:41:54;;;;;;;16.70;5.80;;;;;;;25.96;35.00;99218.81;2018139;87;21121;-60
2022/05/05 09:44:53;;;;;;;18.45;5.65;;;;;;;26.13;35.50;99216.82;2020394;87;20986;-60
2022/05/05 09:47:54;;;;;;;22.67;6.07;;;;;;;26.15;34.30;99217.45;2018412;88;21615;-60
2022/05/05 09:50:54;;;;;;;18.03;5.83;;;;;;;26.35;34.33;99213.70;2018358;88;21025;-60
2022/05/05 10:00:09;;;;;;;17.30;5.53;;;;;;;26.56;33.92;99215.63;1995620;88;20989;-60
2022/05/05 10:06:04;;;;;;;17.65;5.60;;;;;;;26.62;33.45;99213.53;2006378;87;21040;-60
2022/05/05 10:09:04;;;;;;;17.30;5.80;;;;;;;26.80;33.74;99213.98;2022912;87;21556;-61
2022/05/05 10:12:05;;;;;;;19.17;6.00;;;;;;;26.81;34.00;99216.19;2018546;88;21536;-60
2022/05/05 10:15:06;;;;;;;17.93;5.90;;;;;;;26.98;34.08;99206.03;2018613;87;21094;-60
2022/05/05 10:18:08;;;;;;;17.98;5.85;;;;;;;27.22;35.74;99207.48;2018462;88;21041;-60
2022/05/05 10:21:09;;;;;;;16.90;5.87;;;;;;;27.28;33.95;99208.09;2018194;88;21068;-60
2022/05/05 10:24:10;;;;;;;18.53;5.97;;;;;;;27.41;33.77;99198.48;2018408;88;21109;-61
2022/05/05 10:27:11;;;;;;;16.90;5.95;;;;;;;27.48;34.12;99207.45;2018161;88;21584;-60
2022/05/05 10:30:11;;;;;;;17.37;5.97;;;;;;;27.61;33.43;99206.23;2018524;88;21073;-61
2022/05/05 10:33:12;;;;;;;15.97;5.80;;;;;;;27.87;33.60;99193.98;2018605;87;21005;-60
2022/05/05 10:36:12;;;;;;;18.13;5.50;;;;;;;27.94;32.88;99189.47;2018467;88;21064;-61
2022/05/05 10:39:13;;;;;;;17.83;5.63;;;;;;;28.14;32.99;99188.77;2018412;87;21070;-61
2022/05/05 10:42:14;;;;;;;16.27;5.90;;;;;;;28.40;32.18;99188.59;2018487;87;21536;-61
2022/05/05 10:45:14;;;;;;;14.75;5.67;;;;;;;28.27;32.54;99189.36;2018258;88;21579;-60
2022/05/05 10:48:17;;;;;;;17.62;5.92;;;;;;;28.29;31.83;99191.36;2018329;88;21114;-61
2022/05/05 10:51:17;;;;;;;16.12;5.70;;;;;;;28.21;32.11;99187.47;2018436;87;21081;-61
2022/05/05 10:54:19;;;;;;;16.33;5.83;;;;;;;28.29;31.64;99186.78;2018231;86;21109;-60
2022/05/05 10:57:19;;;;;;;18.15;5.60;;;;;;;28.26;31.10;99191.73;2018220;88;21005;-61
2022/05/05 11:00:20;;;;;;;15.47;5.57;;;;;;;28.27;31.03;99190.18;2018309;88;21071;-60
2022/05/05 11:03:21;;;;;;;21.10;7.90;;;;;;;28.34;31.42;99186.17;2018195;88;21037;-61
2022/05/05 11:06:23;;;;;;;17.05;5.97;;;;;;;28.21;30.86;99179.38;2018469;87;21049;-61
2022/05/05 11:09:23;;;;;;;15.60;6.03;;;;;;;27.35;29.45;99177.72;2018358;88;21005;-61
2022/05/05 11:12:24;;;;;;;14.93;5.43;;;;;;;27.51;31.64;99184.69;2018647;88;21124;-61
2022/05/05 11:24:31;;;;;;;18.32;6.10;;;;;;;28.99;30.63;99178.55;2015427;88;21000;-61
2022/05/05 11:27:32;;;;;;;16.77;6.00;;;;;;;29.30;29.89;99171.74;2014981;88;21042;-61
2022/05/05 11:30:32;;;;;;;17.40;5.93;;;;;;;29.31;29.18;99174.77;2018604;88;21085;-61
2022/05/05 11:33:33;;;;;;;16.53;5.80;;;;;;;29.40;29.21;99181.32;2018627;87;20978;-61
2022/05/05 11:36:33;;;;;;;17.47;5.83;;;;;;;29.61;29.06;99181.61;2018634;88;21607;-61
2022/05/05 11:39:34;;;;;;;17.10;6.50;;;;;;;29.65;29.41;99183.70;2018665;87;21021;-61
2022/05/05 11:44:14;;;;;;;18.32;6.70;;;;;;;29.90;27.39;99181.72;2018469;88;21117;-61
2022/05/05 11:45:38;;;;;;;15.58;6.17;;;;;;;29.86;27.45;99172.37;2028364;87;21520;-61
2022/05/05 11:48:38;;;;;;;17.15;5.75;;;;;;;29.24;28.47;99167.18;2036011;86;21060;-60
2022/05/05 11:51:39;;;;;;;16.00;5.67;;;;;;;29.26;29.83;99157.52;2033960;87;20998;-61
2022/05/05 11:54:40;;;;;;;19.25;6.22;;;;;;;29.81;29.20;99162.16;2018364;88;21005;-61
2022/05/05 11:57:40;;;;;;;18.55;6.17;;;;;;;29.98;28.87;99161.20;2018374;88;21057;-61
2022/05/05 12:03:43;;;;;;;15.70;5.62;;;;;;;30.08;28.83;99158.05;2015073;88;21056;-61
2022/05/05 12:06:43;;;;;;;19.13;5.90;;;;;;;30.26;28.53;99155.18;2004218;88;21052;-61
2022/05/05 12:09:44;;;;;;;16.90;6.20;;;;;;;30.38;27.62;99158.89;2018841;88;21108;-60
2022/05/05 12:12:45;;;;;;;16.93;5.90;;;;;;;30.43;28.04;99156.92;2018592;87;21053;-61
2022/05/05 12:15:48;;;;;;;17.65;5.58;;;;;;;30.67;27.76;99158.88;2018318;87;21187;-61
2022/05/05 12:18:47;;;;;;;15.68;5.30;;;;;;;30.86;27.40;99148.14;2019636;88;20998;-61
2022/05/05 12:21:48;;;;;;;18.77;5.63;;;;;;;30.84;25.94;99138.07;2018430;88;21065;-61
2022/05/05 12:24:48;;;;;;;16.13;5.70;;;;;;;30.95;26.77;99141.44;2018583;88;21501;-61
2022/05/05 12:27:49;;;;;;;17.55;5.50;;;;;;;30.44;25.21;99137.77;2011413;88;21144;-61
2022/05/05 12:30:49;;;;;;;15.23;5.73;;;;;;;30.43;25.93;99140.18;1999268;89;21033;-61
2022/05/05 12:33:50;;;;;;;16.47;5.87;;;;;;;30.28;27.51;99139.05;1999243;89;21057;-61
2022/05/05 12:36:51;;;;;;;15.70;5.87;;;;;;;30.33;27.31;99132.48;2001395;89;21068;-61
2022/05/05 12:39:52;;;;;;;14.83;5.30;;;;;;;30.53;27.14;99136.48;2004123;89;21587;-61
2022/05/05 12:42:52;;;;;;;17.82;6.10;;;;;;;30.82;27.18;99128.00;2004264;89;21438;-60
2022/05/05 12:45:53;;;;;;;16.53;5.60;;;;;;;30.72;26.29;99131.17;2004410;89;21147;-61
2022/05/05 12:48:54;;;;;;;18.47;5.53;;;;;;;30.23;26.41;99134.83;2004268;89;21080;-61
2022/05/05 12:51:54;;;;;;;15.63;5.60;;;;;;;30.23;26.41;99134.83;2004612;89;21631;-61
2022/05/05 13:01:00;;;;;;;16.40;5.95;;;;;;;30.77;25.77;99117.80;1983522;89;21065;-61
2022/05/05 13:04:05;;;;;;;16.25;6.03;;;;;;;30.72;22.88;99123.87;2004210;89;21582;-61
2022/05/05 13:07:03;;;;;;;15.45;5.85;;;;;;;30.27;25.93;99113.07;1983531;89;21069;-61
2022/05/05 13:10:03;;;;;;;17.00;5.83;;;;;;;30.48;26.45;99113.29;2004297;89;21694;-61
2022/05/05 13:13:04;;;;;;;15.80;5.35;;;;;;;30.38;26.27;99106.95;2004515;89;21017;-61
2022/05/05 13:16:05;;;;;;;15.23;5.50;;;;;;;30.32;26.83;99105.12;2004531;87;21037;-61
2022/05/05 13:19:05;;;;;;;16.40;5.37;;;;;;;30.57;26.29;99105.23;2004248;89;21033;-61
2022/05/05 13:22:06;;;;;;;16.75;6.12;;;;;;;30.74;26.17;99106.06;2004268;89;21102;-61
2022/05/05 13:25:06;;;;;;;15.97;5.83;;;;;;;30.28;26.04;99105.23;2004269;87;21054;-61
2022/05/05 13:28:07;;;;;;;15.57;5.60;;;;;;;30.34;26.63;99100.84;2011454;88;21567;-61
2022/05/05 13:31:08;;;;;;;;;;;;;;;30.12;26.65;99107.09;2025959;87;21492;-61
2022/05/05 13:34:09;;;;;;;17.90;6.17;;;;;;;29.51;25.97;99111.77;2023570;87;20164;-61
2022/05/05 13:37:09;;;;;;;15.00;5.50;;;;;;;29.25;27.49;99106.73;2024180;87;21005;-61
2022/05/05 13:40:10;;;;;;;19.27;6.37;;;;;;;29.33;27.02;99109.73;2023874;88;21081;-60
2022/05/05 13:43:10;;;;;;;15.47;6.03;;;;;;;29.30;26.79;99107.45;2023910;88;21021;-61
2022/05/05 13:46:10;;;;;;;14.87;5.33;;;;;;;29.20;27.45;99100.55;2023923;88;21480;-61
2022/05/05 13:49:11;;;;;;;16.63;5.83;;;;;;;29.20;27.39;99095.15;2023772;88;21053;-61
2022/05/05 13:52:12;;;;;;;15.05;5.70;;;;;;;29.01;27.28;99096.81;2023922;88;21013;-61
2022/05/05 13:55:12;;;;;;;16.47;5.80;;;;;;;28.51;27.22;99096.30;2024155;88;21113;-61
2022/05/05 13:58:12;;;;;;;16.17;6.03;;;;;;;28.13;27.84;99098.12;2023877;88;21057;-61
2022/05/05 14:01:13;;;;;;;16.03;5.57;;;;;;;28.49;28.55;99101.08;2023799;88;21072;-61
2022/05/05 14:04:13;;;;;;;15.40;5.90;;;;;;;29.11;28.15;99100.99;2023814;88;21025;-61
2022/05/05 14:07:14;;;;;;;15.27;5.80;;;;;;;29.64;27.87;99099.61;2023915;88;21575;-61
2022/05/05 14:13:16;;;;;;;15.58;5.60;;;;;;;30.41;27.19;99093.52;2009427;88;21013;-61
2022/05/05 14:16:18;;;;;;;16.20;5.85;;;;;;;30.84;27.47;99090.16;2009396;87;21037;-61
2022/05/05 14:19:18;;;;;;;14.85;5.55;;;;;;;31.09;26.76;99085.34;2018315;87;21100;-61
2022/05/05 14:22:19;;;;;;;15.55;4.95;;;;;;;31.08;25.77;99089.91;2017941;88;21049;-61
2022/05/05 14:25:20;;;;;;;14.67;4.97;;;;;;;31.01;25.76;99089.13;2018492;88;21025;-61
2022/05/05 14:28:21;;;;;;;16.15;5.50;;;;;;;31.11;25.14;99083.22;2011216;88;21176;-61
2022/05/05 14:31:22;;;;;;;15.40;5.78;;;;;;;31.12;25.46;99091.66;1998519;89;21552;-61
2022/05/05 14:34:23;;;;;;;14.68;5.40;;;;;;;31.05;25.57;99085.47;1998745;89;21049;-61
2022/05/05 14:37:24;;;;;;;16.40;5.37;;;;;;;31.01;25.81;99086.95;1998388;89;21089;-61
2022/05/05 14:40:25;;;;;;;16.50;5.37;;;;;;;30.98;25.39;99090.90;1998613;89;21640;-61
2022/05/05 14:43:26;;;;;;;14.68;5.20;;;;;;;30.90;25.91;99090.66;1998771;89;21536;-61
2022/05/05 14:46:26;;;;;;;12.37;5.08;;;;;;;30.80;25.58;99088.94;1998763;89;21053;-61
2022/05/05 14:49:27;;;;;;;12.65;5.25;;;;;;;30.64;25.72;99085.41;1998438;89;21065;-61
2022/05/05 14:52:28;;;;;;;14.43;5.30;;;;;;;30.46;26.03;99089.69;1998760;89;21595;-61